Airfield :
LOGIN :

Register | Disclaimer

   EN    FR    IT 

 










Legend :    VFR   Marginal VFR   IFR   Intensive IFR   Very Intensive IFR
Visi :
Ceiling :
>= 8 km
>= 3000ft
5 to 8 km
1000 to 3000 ft
1500m to 5 km
500 to 1000 ft
800 to 1500m
200 to 500 ft
< 800m
< 200 ft
Symbols :   Thunderstorms  Fog  Heavy snow  Heavy precipitations  Wind > 20 kt
SIGMETs :     Misc.  Thunderstorms  Icing  Turbulence  Mountain Waves  Volcanic Ashes






- Airport Elevation : 286 ft
- IATA code : FFD


EGVA - RAF Fairford

CURRENT METAR :
  • 150810Z AUTO 19004KT 9999 FEW005 OVC011 11/10 A2962 RMK AO2 CIG 006V011 CIG 007 RWY09 SLP034 $

EXPIRED METARs :
  • 150759Z AUTO 20004KT 9999 BKN006 BKN010 11/11 A2962 RMK AO2 CIG 006V009 SLP034 $
  • 150737Z AUTO 23003KT 9999 OVC008 10/10 A2962 RMK AO2 CIG 008V010 OVC V BKN SLP035 $
  • 150707Z AUTO 21003KT 9999 OVC013 10/10 A2962 RMK AO2 CIG 008 RWY09 SLP035 $
  • 150650Z AUTO 17003KT 8000 BR SCT018 10/10 A2962 RMK AO2 SLP035 $
  • 150640Z AUTO 00000KT 8000 BR FEW006 BKN017 BKN023 10/10 A2962 RMK AO2 CIG 017V023 BKN017 V SCT CIG 008 RWY27 SLP035 $
  • 150616Z AUTO 00000KT 9000 BR SCT012 BKN024 10/10 A2961 RMK AO2 CIG 012V024 CIG 010 RWY27 SLP031 $

Expired Forecast.



MET'MAP, your aeronautical weather chart ! - Copyright ORBIFLY December 2007 - Disclaimer

ORBIFLY MET'MAP TEAM :

Programming & Development : Alexandra Zaïnal
Concept & Development : Baudouin d'Aumeries
Co-Development & Prog : Marc-Olivier Méhu
Technical & hardware support : Manuel Goepfert

Contact : metmap@orbifly.com




SOURCES & CREDITS :

   NOAA